Current Conditions

Updated: 23-Jun-2018 10:08 PM  
Summary / Temperature Wind Rain






Feels like: 82°F

1-hour difference
3.9°F 3.9°F colder than last hour.

24-hour difference
0.6°F0.6°F warmer than yesterday at this time.

  Today Yesterday
High: 101.9°F
4:30 PM
100.3°F
4:01 PM
Low: 66.0°F
5:27 AM
60.0°F
5:57 AM
Calm WNW
0.0
Gust:  0.0 mph
0 Beaufort - Calm

Today: 6.9 - 6:47 AM
Month: 13.0 mph - Jun 9
Rain Today: 0.00 in
Current Rate (/hr): 0.000 in
Max Rate (/hr):
Rain Yesterday: 0.00 in
Storm Rain: 0.00 in
This Month: 0.00 in
Season Total: 6.40 in
Last Rain Event: 67 days ago
Humidity / Barometer Sun / Moon
Humidity: 57 Increased 3.0% in the last hour.
Dew Point: 64.1°F Decreased 2.2°F in the last hour.
Barometer: 29.643 inHg  
Baro Trend: Rising slowly
Sunrise: 5:40 AM
Sunset: 8:17 PM
Moonrise: 4:21 PM
Moonset: 3:26 AM
Sky Conditions UV Index
Summary: Clear
Visibility: 10 miles
Clouds: None
KVIS - 9:56 PM PDT
Current: 0.0  None 
Sunday: 10.7  Very High 
Monday: 10.2  Very High 
Air Quality Fire Danger
 Moderate 
Ozone 62 ppb
PM 2.5 6 μg/m3
10:00 PM PDT
Current: 13  Low 

Local Alerts Local Forecast
Local NWS Alerts
Tonight

Clear

Low 69
Sun

Sunny

High 103
Sun night

Clear

Low 68
Mon

Sunny

High 102
Mon night

Clear

Low 68
Tue

Sunny

High 102
Tue night

Clear

Low 66

Local Radar Local Satellite Neighborhood Cam Sky Cam
Local Radar Local Satellite Neighborhood Cam Sky Cam


Nearby Personal Stations

Weather Underground PWS KCAEXETE7     Weather Underground PWS KCAEXETE6     Weather Underground PWS KCAEXETE11

Nearby Airport Stations

KVIS - Visalia, California, USA
Distance from station: W 14mi, 23km
Updated: Sat, 23-Jun-2018 9:56pm PDT
Clear
Clear
 Wind from WNW
Wind: WNW 3 mph , 6 km/h
Temperature: 82°F , 28°C
Heat Index: 82°F , 28°C
Dew Point: 61°F , 16°C
Humidity: 48%
Barometer: 29.69 inHg , 1005.4 hPa
Clouds: Clear
Visibility: 10 miles , 16 km
2018/06/24 04:56 KVIS 240456Z AUTO 30003KT 10SM CLR 28/16 A2969 RMK AO2 SLP056 T02780161
KPTV - Porterville, California, USA
Distance from station: SSE 19mi, 31km
Updated: Sat, 23-Jun-2018 9:56pm PDT
Clear
Clear
 Wind from calm
Wind: Calm
Temperature: 82°F , 28°C
Heat Index: 82°F , 28°C
Dew Point: 61°F , 16°C
Humidity: 48%
Barometer: 29.71 inHg , 1006.1 hPa
Clouds: Clear
Visibility: 10 miles , 16 km
2018/06/24 04:56 KPTV 240456Z AUTO 00000KT 10SM CLR 28/16 A2971 RMK AO2 SLP063 T02780161

Metar display script from Saratoga-Weather.org



Visitor Map